Latest Weather Observations for Camooweal

IDQ60801

Issued at 9:22 am EST Wednesday 16 January 2019 (issued every 10 minutes, with the page automatically refreshed every 10 minutes)

About weather observations | Map of weather stations | Latest weather observations for QLD | Other Formats
Station Details ID: 037010 Name: CAMOOWEAL TOWNSHIP Lat: -19.92 Lon: 138.12 Height: 231.2 m
Data from the previous 72 hours. | See also: Recent months at Camooweal
Date/Time
EST
Temp
°C
App
Temp
°C
Dew
Point
°C
Rel
Hum
%
Delta-T
°C
Wind Press
QNH
hPa
Press
MSL
hPa
Rain since
9am
mm
Dir  Spd
km/h
Gust
km/h
Spd
kts
Gust
kts
16/09:00am 31.5 33.1 19.2 48 8.1 NW 9 13 5 7 1011.8 1010.0 0.0
16/08:30am 31.4 33.6 20.4 52 7.4 NNW 9 15 5 8 1011.7 1009.9 0.0
16/08:00am 30.6 33.9 19.9 52 7.1 W 2 6 1 3 1011.5 1009.7 0.0
16/07:30am 29.5 32.3 20.4 58 6.1 NE 6 7 3 4 1011.2 1009.4 0.0
16/07:00am 28.4 31.3 20.7 63 5.1 NE 6 7 3 4 1010.7 1008.9 0.0
16/06:30am 27.8 30.8 20.9 66 4.6 N 6 9 3 5 1009.9 1008.1 0.0
16/06:00am 27.7 30.8 21.0 67 4.5 N 6 7 3 4 1009.3 1007.5 0.0
16/05:30am 27.7 31.9 21.0 67 4.5 CALM 0 0 0 0 1008.8 1007.0 0.0
16/05:00am 27.8 30.8 20.9 66 4.6 NW 6 7 3 4 1008.4 1006.6 0.0
16/04:30am 28.0 31.9 21.1 66 4.6 NW 2 7 1 4 1008.0 1006.2 0.0
16/04:00am 28.1 32.4 21.1 65 4.7 CALM 0 0 0 0 1008.0 1006.2 0.0
16/03:30am 28.4 31.7 21.4 66 4.7 NNW 6 7 3 4 1007.9 1006.1 0.0
16/03:00am 28.7 31.8 21.5 65 4.9 NNW 7 9 4 5 1008.0 1006.2 0.0
16/02:30am 28.9 32.1 21.7 65 4.9 NNW 7 11 4 6 1007.9 1006.1 0.0
16/02:00am 29.5 32.7 21.7 63 5.3 NNW 7 11 4 6 1007.8 1006.0 0.0
16/01:30am 29.8 32.6 21.5 61 5.6 NNW 9 13 5 7 1007.8 1006.0 0.0
16/01:00am 30.8 32.3 21.3 57 6.4 N 15 20 8 11 1007.8 1006.0 0.0
16/12:30am 31.3 32.2 21.5 56 6.7 N 19 26 10 14 1007.9 1006.1 0.0
16/12:00am 31.9 32.9 21.1 52 7.3 N 17 24 9 13 1008.1 1006.3 0.0
 
Date/Time
EST
Temp
°C
App
Temp
°C
Dew
Point
°C
Rel
Hum
%
Delta-T
°C
Wind Press
QNH
hPa
Press
MSL
hPa
Rain since
9am
mm
Dir  Spd
km/h
Gust
km/h
Spd
kts
Gust
kts
15/11:30pm 32.2 32.7 20.8 51 7.7 N 19 26 10 14 1008.0 1006.2 0.0
15/11:00pm 32.8 32.5 20.3 47 8.4 N 22 33 12 18 1007.9 1006.1 0.0
15/10:30pm 33.2 34.6 18.6 42 9.6 N 9 11 5 6 1007.6 1005.8 0.0
15/10:00pm 33.6 34.5 18.5 40 9.9 N 11 15 6 8 1007.4 1005.6 0.0
15/09:30pm 33.9 34.4 18.4 40 10.2 NNE 13 17 7 9 1007.2 1005.4 0.0
15/09:00pm 34.2 34.3 18.3 39 10.4 NNE 15 24 8 13 1007.0 1005.2 0.0
15/08:30pm 34.5 33.7 18.1 37 10.7 NNE 19 28 10 15 1006.8 1005.0 0.0
15/08:00pm 34.8 33.2 17.5 35 11.3 NNE 22 30 12 16 1006.5 1004.6 0.0
15/07:30pm 35.1 34.0 17.3 34 11.5 NNE 19 30 10 16 1006.5 1004.6 0.0
15/07:00pm 35.7 33.9 16.9 32 12.2 NNE 22 32 12 17 1006.4 1004.5 0.0
15/06:30pm 36.5 34.6 17.6 32 12.4 NNE 24 32 13 17 1006.2 1004.3 0.0
15/06:00pm 36.1 33.3 17.3 33 12.3 NNE 28 35 15 19 1005.8 1004.0 0.0
15/05:30pm 36.2 34.0 18.7 35 11.6 NNE 28 43 15 23 1005.7 1003.9 0.0
15/05:00pm 34.5 32.6 19.3 40 10.1 NE 28 46 15 25 1005.8 1004.0 0.0
15/04:44pm 36.2 34.6 18.3 34 11.8 ENE 24 46 13 25 1005.8 1004.0 0.0
15/04:40pm 37.3 36.6 17.3 30 13.1 E 17 46 9 25 1005.6 1003.8 0.0
15/04:30pm 39.4 38.1 13.7 21 16.1 SE 13 20 7 11 1005.2 1003.4 0.0
15/04:00pm 39.9 39.7 14.8 22 16.0 SE 9 17 5 9 1005.4 1003.6 0.0
15/03:30pm 38.4 37.9 14.9 25 14.9 E 11 15 6 8 1006.0 1004.2 0.0
15/03:00pm 39.9 39.4 14.8 22 16.0 SE 11 24 6 13 1006.2 1004.3 0.0
15/02:30pm 39.1 39.2 15.5 25 15.1 WNW 9 15 5 8 1006.7 1004.9 0.0
15/02:00pm 37.8 37.6 15.6 27 14.2 ENE 11 20 6 11 1007.5 1005.7 0.0
15/01:30pm 38.2 39.5 17.0 28 13.8 S 6 11 3 6 1008.1 1006.3 0.0
15/01:00pm 37.6 38.3 17.1 30 13.4 NNW 9 17 5 9 1008.7 1006.9 0.0
15/12:30pm 37.2 37.6 17.2 30 13.0 E 11 20 6 11 1009.5 1007.7 0.0
15/12:00pm 36.5 37.8 17.6 32 12.4 NW 7 11 4 6 1010.0 1008.2 0.0
15/11:30am 37.0 37.9 18.5 33 12.3 SE 11 19 6 10 1010.5 1008.8 0.0
15/11:00am 35.3 36.2 18.4 37 11.1 NE 11 22 6 12 1010.8 1009.0 0.0
15/10:30am 34.7 35.3 18.7 38 10.6 NNW 13 20 7 11 1011.2 1009.4 0.0
15/10:00am 34.4 34.9 19.2 40 10.1 NNE 15 28 8 15 1011.3 1009.5 0.0
15/09:30am 33.6 33.8 18.5 40 9.9 N 15 24 8 13 1011.7 1009.9 0.0
15/09:00am 33.1 34.2 18.8 42 9.4 NNW 11 15 6 8 1012.0 1010.2 0.0
15/08:30am 32.2 33.7 19.8 48 8.3 NW 11 17 6 9 1012.0 1010.2 0.0
15/08:00am 31.2 33.6 20.8 54 7.0 NNW 9 15 5 8 1011.7 1009.9 0.0
15/07:30am 30.0 31.4 20.3 56 6.5 N 13 17 7 9 1011.5 1009.7 0.0
15/07:00am 28.9 30.8 19.8 58 6.0 NNE 9 13 5 7 1011.2 1009.4 0.0
15/06:30am 28.5 30.4 19.7 59 5.8 NE 9 11 5 6 1010.8 1009.0 0.0
15/06:00am 28.8 30.7 19.7 58 6.0 NNE 9 13 5 7 1010.0 1008.2 0.0
15/05:30am 29.0 31.2 19.6 57 6.2 NNE 7 9 4 5 1009.5 1007.7 0.0
15/05:00am 29.4 31.8 19.7 56 6.4 N 6 7 3 4 1008.8 1007.0 0.0
15/04:30am 29.3 32.7 19.3 55 6.6 CALM 0 0 0 0 1008.6 1006.8 0.0
15/04:00am 29.9 32.1 19.6 54 6.8 N 7 11 4 6 1008.1 1006.3 0.0
15/03:30am 30.3 32.0 19.3 51 7.2 NNW 9 13 5 7 1007.9 1006.1 0.0
15/03:00am 30.7 31.9 19.1 50 7.6 NNW 11 17 6 9 1007.9 1006.1 0.0
15/02:30am 31.2 32.3 18.9 48 8.1 N 11 15 6 8 1008.0 1006.2 0.0
15/02:00am 31.7 32.0 18.7 46 8.5 N 15 24 8 13 1007.8 1006.0 0.0
15/01:30am 32.1 32.4 18.7 45 8.8 N 15 20 8 11 1008.0 1006.2 0.0
15/01:00am 32.4 32.0 18.9 44 8.9 N 19 28 10 15 1008.0 1006.2 0.0
15/12:30am 32.9 32.4 18.7 43 9.3 N 19 30 10 16 1008.2 1006.4 0.0
15/12:00am 33.4 32.5 18.3 40 9.9 N 20 30 11 16 1008.4 1006.6 0.0
 
Date/Time
EST
Temp
°C
App
Temp
°C
Dew
Point
°C
Rel
Hum
%
Delta-T
°C
Wind Press
QNH
hPa
Press
MSL
hPa
Rain since
9am
mm
Dir  Spd
km/h
Gust
km/h
Spd
kts
Gust
kts
14/11:30pm 34.0 32.7 16.8 35 11.0 N 19 28 10 15 1008.3 1006.5 0.0
14/11:00pm 34.5 33.4 16.4 34 11.6 N 17 24 9 13 1008.1 1006.3 0.0
14/10:30pm 34.8 33.6 16.1 32 11.9 N 17 20 9 11 1007.7 1005.9 0.0
14/10:00pm 35.2 33.6 16.0 31 12.3 N 19 26 10 14 1007.4 1005.6 0.0
14/09:30pm 35.7 35.0 14.4 28 13.3 NNE 11 15 6 8 1007.0 1005.2 0.0
14/09:00pm 36.4 35.3 14.4 27 13.8 NNE 13 20 7 11 1006.8 1005.0 0.0
14/08:30pm 36.9 35.6 13.6 24 14.4 NNE 13 20 7 11 1006.6 1004.7 0.0
14/08:00pm 37.6 36.3 13.6 24 14.9 NNE 13 20 7 11 1006.3 1004.4 0.0
14/07:30pm 38.2 36.4 13.4 23 15.4 N 15 20 8 11 1005.9 1004.1 0.0
14/07:00pm 38.4 37.2 12.9 22 15.8 ENE 11 20 6 11 1005.6 1003.8 0.0
14/06:30pm 39.2 37.0 12.1 20 16.6 ENE 15 20 8 11 1005.4 1003.6 0.0
14/06:00pm 39.0 36.8 13.4 22 16.0 NE 17 30 9 16 1005.2 1003.4 0.0
14/05:30pm 39.5 37.2 13.1 21 16.4 NE 17 24 9 13 1005.2 1003.4 0.0
14/05:00pm 38.6 37.6 12.4 21 16.1 NNE 9 13 5 7 1005.1 1003.3 0.0
14/04:30pm 40.0 38.0 12.8 20 16.9 E 15 33 8 18 1005.3 1003.5 0.0
14/04:00pm 39.3 38.4 13.7 22 16.1 ENE 11 22 6 12 1005.5 1003.7 0.0
14/03:45pm 39.3 36.4 12.2 20 16.6 NE 19 41 10 22 1005.6 1003.8 0.0
14/03:30pm 39.7 37.6 12.5 20 16.8 ENE 15 35 8 19 1005.8 1004.0 0.0
14/03:00pm 39.0 37.4 12.7 21 16.3 NNE 13 28 7 15 1006.3 1004.4 0.0
14/02:30pm 38.6 36.0 13.1 22 15.8 ENE 19 30 10 16 1006.9 1005.1 0.0
14/02:00pm 38.6 35.6 13.8 23 15.5 E 22 33 12 18 1007.4 1005.6 0.0
14/01:30pm 38.2 36.7 14.1 24 15.1 NNE 15 26 8 14 1007.8 1006.0 0.0
14/01:00pm 37.2 35.2 13.9 25 14.5 NNE 17 24 9 13 1008.3 1006.5 0.0
14/12:30pm 37.7 36.8 14.9 26 14.4 NNE 13 30 7 16 1008.7 1006.9 0.0
14/12:00pm 37.1 36.8 15.5 27 13.8 ENE 11 26 6 14 1009.1 1007.3 0.0
14/11:30am 36.2 36.5 15.9 30 13.0 NE 9 19 5 10 1009.4 1007.6 0.0
14/11:00am 35.2 35.1 16.0 31 12.3 N 11 17 6 9 1009.7 1007.9 0.0
14/10:30am 34.2 35.3 17.0 36 11.1 NNE 7 13 4 7 1010.0 1008.2 0.0
14/10:00am 33.0 33.5 18.4 42 9.6 NNW 13 22 7 12 1010.2 1008.4 0.0
14/09:30am 31.9 32.9 19.5 47 8.2 N 13 19 7 10 1010.1 1008.3 0.0
14/09:00am 31.5 32.8 20.1 50 7.6 NNW 13 20 7 11 1010.2 1008.4 0.0
14/08:30am 30.7 32.5 20.3 53 6.9 NW 11 15 6 8 1010.4 1008.6 0.0
14/08:00am 29.9 32.2 20.7 57 6.2 NW 9 13 5 7 1010.2 1008.4 0.0
14/07:30am 28.7 31.2 21.0 63 5.2 NNW 9 11 5 6 1010.2 1008.4 0.0
14/07:00am 27.7 30.4 21.3 68 4.3 N 9 11 5 6 1010.0 1008.2 0.0
14/06:30am 27.1 30.3 21.6 72 3.7 NNW 7 9 4 5 1009.6 1007.8 0.0
14/06:00am 27.2 30.4 21.7 72 3.7 NNW 7 11 4 6 1009.3 1007.5 0.0
14/05:30am 27.4 30.4 21.9 72 3.7 NNW 9 11 5 6 1008.9 1007.1 0.0
14/05:00am 27.6 30.8 21.6 70 4.0 N 7 9 4 5 1008.4 1006.6 0.0
14/04:30am 28.0 31.5 22.2 70 3.9 N 7 11 4 6 1008.1 1006.3 0.0
14/04:00am 28.4 31.5 22.2 69 4.2 NNE 9 13 5 7 1008.1 1006.3 0.0
14/03:30am 29.0 31.7 22.2 66 4.6 NNE 11 17 6 9 1008.1 1006.3 0.0
14/03:00am 29.2 31.9 22.2 66 4.8 NNE 11 15 6 8 1008.1 1006.3 0.0
14/02:30am 29.8 32.4 22.0 63 5.3 NNE 11 15 6 8 1007.9 1006.1 0.0
14/02:00am 30.3 31.9 20.0 54 6.9 NNE 11 15 6 8 1007.9 1006.1 0.0
14/01:30am 30.9 31.3 18.9 48 7.9 N 15 20 8 11 1007.8 1006.0 0.0
14/01:00am 31.6 30.9 18.6 46 8.5 NNE 20 30 11 16 1007.9 1006.1 0.0
14/12:30am 31.5 28.7 8.5 24 12.9 ENE 13 20 7 11 1008.0 1006.2 0.0
14/12:00am 32.0 30.1 8.9 24 13.1 ENE 9 11 5 6 1007.9 1006.1 0.0
 
Date/Time
EST
Temp
°C
App
Temp
°C
Dew
Point
°C
Rel
Hum
%
Delta-T
°C
Wind Press
QNH
hPa
Press
MSL
hPa
Rain since
9am
mm
Dir  Spd
km/h
Gust
km/h
Spd
kts
Gust
kts
13/11:30pm 32.5 30.5 8.7 23 13.5 ENE 9 11 5 6 1008.0 1006.2 0.0
13/11:00pm 33.2 31.4 9.3 23 13.7 ENE 9 11 5 6 1008.2 1006.4 0.0
13/10:30pm 33.5 31.7 9.5 23 13.8 E 9 11 5 6 1008.1 1006.3 0.0
13/10:00pm 34.3 32.3 10.2 23 14.1 E 11 13 6 7 1007.9 1006.1 0.0
13/09:30pm 35.3 33.6 9.7 21 14.9 ENE 9 13 5 7 1007.7 1005.9 0.0
13/09:00pm 36.2 34.3 10.4 21 15.3 ENE 11 15 6 8 1007.4 1005.6 0.0
13/08:30pm 36.8 35.0 10.9 21 15.4 E 11 13 6 7 1007.3 1005.5 0.0
13/08:00pm 37.8 34.3 10.2 19 16.4 E 19 26 10 14 1006.9 1005.1 0.0
13/07:30pm 38.5 35.0 10.8 19 16.6 E 20 30 11 16 1006.5 1004.6 0.0
13/07:00pm 39.3 36.5 11.4 19 16.9 ESE 17 24 9 13 1006.3 1004.4 0.0
13/06:30pm 40.0 35.3 12.0 19 17.2 ESE 28 37 15 20 1005.8 1004.0 0.0
13/06:00pm 40.1 36.0 11.3 18 17.5 ESE 24 35 13 19 1005.5 1003.7 0.0
13/05:30pm 40.8 37.5 10.9 17 18.1 SE 19 26 10 14 1005.3 1003.5 0.0
13/05:00pm 41.1 37.3 11.2 17 18.2 SE 22 35 12 19 1005.2 1003.4 0.0
13/04:30pm 41.6 36.9 10.7 16 18.7 SE 26 48 14 26 1005.4 1003.6 0.0
13/04:27pm 41.5 37.2 10.6 16 18.7 SE 24 48 13 26 1005.3 1003.5 0.0
13/04:00pm 39.9 36.2 10.2 17 17.8 ESE 20 30 11 16 1005.7 1003.9 0.0
13/03:30pm 40.1 36.7 10.4 17 17.8 E 19 39 10 21 1006.2 1004.3 0.0
13/03:00pm 42.4 39.5 12.2 17 18.8 SE 19 37 10 20 1006.4 1004.5 0.0
13/02:30pm 40.3 35.4 11.4 18 17.6 ESE 28 46 15 25 1007.0 1005.2 0.0
13/02:24pm 40.0 35.6 12.8 20 16.9 ESE 28 46 15 25 1007.0 1005.2 0.0
13/02:00pm 39.1 35.5 12.0 20 16.6 E 22 41 12 22 1007.4 1005.6 0.0
13/01:30pm 39.5 37.3 14.5 23 15.8 SE 19 44 10 24 1008.0 1006.2 0.0
13/01:00pm 37.5 37.8 15.9 28 13.9 SSW 9 15 5 8 1008.8 1007.0 0.0
13/12:30pm 38.5 38.2 17.3 28 13.9 E 15 24 8 13 1009.2 1007.4 0.0
13/12:00pm 37.8 37.2 16.7 29 13.7 E 15 26 8 14 1009.6 1007.8 0.0
13/11:30am 36.7 36.2 16.8 30 12.9 NE 15 26 8 14 1010.2 1008.4 0.0
13/11:00am 36.3 36.8 18.4 35 11.8 N 13 20 7 11 1010.7 1008.9 0.0
13/10:30am 34.5 36.7 20.5 44 9.5 NNW 9 17 5 9 1011.2 1009.4 0.0
13/10:00am 33.5 36.4 20.6 46 8.7 SW 6 11 3 6 1011.3 1009.5 0.0
13/09:30am 32.9 36.4 21.1 50 8.0 WSW 4 9 2 5 1011.4 1009.6 0.0

Other Formats:

Comma delimited format used in spreadsheet applications
http://www.bom.gov.au/fwo/IDQ60801/IDQ60801.94255.axf

JavaScript Object Notation format (JSON) in row-major order
http://www.bom.gov.au/fwo/IDQ60801/IDQ60801.94255.json